sensor_id;sensor_type;location;lat;lon;timestamp;P1;durP1;ratioP1;P2;durP2;ratioP2
5363;SDS011;2705;41.410;2.160;2023-06-26T00:02:09;15.40;;;11.17;;
5363;SDS011;2705;41.410;2.160;2023-06-26T00:04:39;17.33;;;10.03;;
5363;SDS011;2705;41.410;2.160;2023-06-26T00:07:10;19.53;;;10.50;;
5363;SDS011;2705;41.410;2.160;2023-06-26T00:09:40;15.80;;;10.53;;
5363;SDS011;2705;41.410;2.160;2023-06-26T00:12:10;15.40;;;10.23;;
5363;SDS011;2705;41.410;2.160;2023-06-26T00:14:39;13.90;;;9.90;;
5363;SDS011;2705;41.410;2.160;2023-06-26T00:17:09;14.73;;;10.30;;
5363;SDS011;2705;41.410;2.160;2023-06-26T00:19:38;18.40;;;10.63;;
5363;SDS011;2705;41.410;2.160;2023-06-26T00:22:09;19.20;;;11.10;;
5363;SDS011;2705;41.410;2.160;2023-06-26T00:24:39;18.40;;;11.23;;
5363;SDS011;2705;41.410;2.160;2023-06-26T00:27:09;22.20;;;13.50;;
5363;SDS011;2705;41.410;2.160;2023-06-26T00:29:39;19.33;;;13.00;;
5363;SDS011;2705;41.410;2.160;2023-06-26T00:32:08;22.70;;;12.87;;
5363;SDS011;2705;41.410;2.160;2023-06-26T00:34:38;20.30;;;13.40;;
5363;SDS011;2705;41.410;2.160;2023-06-26T00:37:08;20.10;;;13.40;;
5363;SDS011;2705;41.410;2.160;2023-06-26T00:39:39;26.30;;;17.67;;
5363;SDS011;2705;41.410;2.160;2023-06-26T00:42:09;21.20;;;14.20;;
5363;SDS011;2705;41.410;2.160;2023-06-26T00:44:39;17.73;;;12.17;;
5363;SDS011;2705;41.410;2.160;2023-06-26T00:47:09;19.80;;;11.13;;
5363;SDS011;2705;41.410;2.160;2023-06-26T00:49:38;19.60;;;11.63;;
5363;SDS011;2705;41.410;2.160;2023-06-26T00:52:08;19.70;;;11.70;;
5363;SDS011;2705;41.410;2.160;2023-06-26T00:54:38;15.13;;;10.17;;
5363;SDS011;2705;41.410;2.160;2023-06-26T00:57:10;24.07;;;11.50;;
5363;SDS011;2705;41.410;2.160;2023-06-26T00:59:40;15.50;;;10.13;;
5363;SDS011;2705;41.410;2.160;2023-06-26T01:02:09;17.93;;;11.70;;
5363;SDS011;2705;41.410;2.160;2023-06-26T01:04:39;17.73;;;11.17;;
5363;SDS011;2705;41.410;2.160;2023-06-26T01:07:14;18.13;;;10.10;;
5363;SDS011;2705;41.410;2.160;2023-06-26T01:09:46;15.13;;;10.10;;
5363;SDS011;2705;41.410;2.160;2023-06-26T01:12:18;16.30;;;9.87;;
5363;SDS011;2705;41.410;2.160;2023-06-26T01:14:48;13.40;;;9.50;;
5363;SDS011;2705;41.410;2.160;2023-06-26T01:17:18;14.60;;;9.60;;
5363;SDS011;2705;41.410;2.160;2023-06-26T01:19:48;19.17;;;9.30;;
5363;SDS011;2705;41.410;2.160;2023-06-26T01:22:19;19.03;;;9.47;;
5363;SDS011;2705;41.410;2.160;2023-06-26T01:24:56;11.60;;;8.37;;
5363;SDS011;2705;41.410;2.160;2023-06-26T01:27:32;18.50;;;9.50;;
5363;SDS011;2705;41.410;2.160;2023-06-26T01:30:03;16.13;;;10.07;;
5363;SDS011;2705;41.410;2.160;2023-06-26T01:32:35;15.03;;;10.43;;
5363;SDS011;2705;41.410;2.160;2023-06-26T01:35:06;21.43;;;10.80;;
5363;SDS011;2705;41.410;2.160;2023-06-26T01:37:36;18.07;;;10.50;;
5363;SDS011;2705;41.410;2.160;2023-06-26T01:40:06;15.57;;;10.77;;
5363;SDS011;2705;41.410;2.160;2023-06-26T01:42:40;16.47;;;10.43;;
5363;SDS011;2705;41.410;2.160;2023-06-26T01:45:11;14.83;;;10.70;;
5363;SDS011;2705;41.410;2.160;2023-06-26T01:47:43;18.70;;;9.93;;
5363;SDS011;2705;41.410;2.160;2023-06-26T01:50:16;15.77;;;10.10;;
5363;SDS011;2705;41.410;2.160;2023-06-26T01:52:49;17.63;;;10.77;;
5363;SDS011;2705;41.410;2.160;2023-06-26T01:55:24;16.67;;;11.00;;
5363;SDS011;2705;41.410;2.160;2023-06-26T01:57:58;16.03;;;10.60;;
5363;SDS011;2705;41.410;2.160;2023-06-26T02:00:29;16.80;;;10.80;;
5363;SDS011;2705;41.410;2.160;2023-06-26T02:02:59;14.97;;;10.87;;
5363;SDS011;2705;41.410;2.160;2023-06-26T02:05:29;16.33;;;9.47;;
5363;SDS011;2705;41.410;2.160;2023-06-26T02:08:00;14.70;;;9.90;;
5363;SDS011;2705;41.410;2.160;2023-06-26T02:10:30;13.60;;;9.50;;
5363;SDS011;2705;41.410;2.160;2023-06-26T02:13:01;15.40;;;9.10;;
5363;SDS011;2705;41.410;2.160;2023-06-26T02:15:30;24.27;;;9.07;;
5363;SDS011;2705;41.410;2.160;2023-06-26T02:18:00;16.57;;;8.83;;
5363;SDS011;2705;41.410;2.160;2023-06-26T02:20:29;16.67;;;9.27;;
5363;SDS011;2705;41.410;2.160;2023-06-26T02:23:00;15.30;;;8.73;;
5363;SDS011;2705;41.410;2.160;2023-06-26T02:25:30;16.23;;;9.70;;
5363;SDS011;2705;41.410;2.160;2023-06-26T02:28:00;13.20;;;7.73;;
5363;SDS011;2705;41.410;2.160;2023-06-26T02:30:30;13.47;;;8.90;;
5363;SDS011;2705;41.410;2.160;2023-06-26T02:32:59;16.90;;;8.80;;
5363;SDS011;2705;41.410;2.160;2023-06-26T02:35:29;13.83;;;8.37;;
5363;SDS011;2705;41.410;2.160;2023-06-26T02:38:01;13.10;;;8.40;;
5363;SDS011;2705;41.410;2.160;2023-06-26T02:40:32;11.20;;;7.67;;
5363;SDS011;2705;41.410;2.160;2023-06-26T02:43:03;9.20;;;6.87;;
5363;SDS011;2705;41.410;2.160;2023-06-26T02:45:32;11.77;;;7.90;;
5363;SDS011;2705;41.410;2.160;2023-06-26T02:48:02;19.83;;;7.70;;
5363;SDS011;2705;41.410;2.160;2023-06-26T02:50:32;10.97;;;7.50;;
5363;SDS011;2705;41.410;2.160;2023-06-26T02:53:12;11.43;;;7.37;;
5363;SDS011;2705;41.410;2.160;2023-06-26T02:55:45;11.93;;;7.47;;
5363;SDS011;2705;41.410;2.160;2023-06-26T02:58:18;13.40;;;7.50;;
5363;SDS011;2705;41.410;2.160;2023-06-26T03:00:48;16.57;;;8.60;;
5363;SDS011;2705;41.410;2.160;2023-06-26T03:03:18;13.23;;;7.50;;
5363;SDS011;2705;41.410;2.160;2023-06-26T03:05:48;12.57;;;7.70;;
5363;SDS011;2705;41.410;2.160;2023-06-26T03:08:17;17.53;;;8.50;;
5363;SDS011;2705;41.410;2.160;2023-06-26T03:10:47;20.40;;;8.70;;
5363;SDS011;2705;41.410;2.160;2023-06-26T03:13:18;13.47;;;8.60;;
5363;SDS011;2705;41.410;2.160;2023-06-26T03:15:48;12.27;;;8.60;;
5363;SDS011;2705;41.410;2.160;2023-06-26T03:18:18;13.40;;;8.67;;
5363;SDS011;2705;41.410;2.160;2023-06-26T03:20:47;14.33;;;7.90;;
5363;SDS011;2705;41.410;2.160;2023-06-26T03:23:17;13.93;;;8.37;;
5363;SDS011;2705;41.410;2.160;2023-06-26T03:25:47;9.90;;;6.53;;
5363;SDS011;2705;41.410;2.160;2023-06-26T03:28:30;11.07;;;7.70;;
5363;SDS011;2705;41.410;2.160;2023-06-26T03:31:00;11.07;;;7.77;;
5363;SDS011;2705;41.410;2.160;2023-06-26T03:33:31;10.40;;;7.10;;
5363;SDS011;2705;41.410;2.160;2023-06-26T03:36:01;12.37;;;7.50;;
5363;SDS011;2705;41.410;2.160;2023-06-26T03:38:30;11.60;;;7.83;;
5363;SDS011;2705;41.410;2.160;2023-06-26T03:41:00;11.07;;;7.80;;
5363;SDS011;2705;41.410;2.160;2023-06-26T03:43:31;12.70;;;7.50;;
5363;SDS011;2705;41.410;2.160;2023-06-26T03:46:11;12.30;;;7.87;;
5363;SDS011;2705;41.410;2.160;2023-06-26T03:48:41;14.10;;;8.17;;
5363;SDS011;2705;41.410;2.160;2023-06-26T03:51:10;18.97;;;7.97;;
5363;SDS011;2705;41.410;2.160;2023-06-26T03:53:40;14.50;;;7.97;;
5363;SDS011;2705;41.410;2.160;2023-06-26T03:56:10;12.47;;;8.20;;
5363;SDS011;2705;41.410;2.160;2023-06-26T03:58:41;13.40;;;8.00;;
5363;SDS011;2705;41.410;2.160;2023-06-26T04:01:16;17.17;;;8.67;;
5363;SDS011;2705;41.410;2.160;2023-06-26T04:03:46;14.20;;;7.57;;
5363;SDS011;2705;41.410;2.160;2023-06-26T04:06:16;13.20;;;8.73;;
5363;SDS011;2705;41.410;2.160;2023-06-26T04:08:46;13.40;;;8.03;;
5363;SDS011;2705;41.410;2.160;2023-06-26T04:11:16;13.83;;;7.80;;
5363;SDS011;2705;41.410;2.160;2023-06-26T04:13:47;12.33;;;8.03;;
5363;SDS011;2705;41.410;2.160;2023-06-26T04:16:16;12.80;;;8.00;;
5363;SDS011;2705;41.410;2.160;2023-06-26T04:18:46;11.77;;;7.90;;
5363;SDS011;2705;41.410;2.160;2023-06-26T04:21:16;11.87;;;7.70;;
5363;SDS011;2705;41.410;2.160;2023-06-26T04:23:46;15.30;;;8.83;;
5363;SDS011;2705;41.410;2.160;2023-06-26T04:26:16;11.50;;;8.77;;
5363;SDS011;2705;41.410;2.160;2023-06-26T04:28:47;16.90;;;7.87;;
5363;SDS011;2705;41.410;2.160;2023-06-26T04:31:16;10.93;;;8.20;;
5363;SDS011;2705;41.410;2.160;2023-06-26T04:33:45;15.23;;;7.90;;
5363;SDS011;2705;41.410;2.160;2023-06-26T04:36:18;22.30;;;10.80;;
5363;SDS011;2705;41.410;2.160;2023-06-26T04:38:47;17.20;;;8.30;;
5363;SDS011;2705;41.410;2.160;2023-06-26T04:41:16;14.93;;;8.70;;
5363;SDS011;2705;41.410;2.160;2023-06-26T04:43:48;14.93;;;8.17;;
5363;SDS011;2705;41.410;2.160;2023-06-26T04:46:17;16.30;;;8.73;;
5363;SDS011;2705;41.410;2.160;2023-06-26T04:48:47;13.80;;;8.60;;
5363;SDS011;2705;41.410;2.160;2023-06-26T04:51:16;15.20;;;7.60;;
5363;SDS011;2705;41.410;2.160;2023-06-26T04:53:48;14.97;;;8.47;;
5363;SDS011;2705;41.410;2.160;2023-06-26T04:56:17;13.57;;;8.23;;
5363;SDS011;2705;41.410;2.160;2023-06-26T04:58:48;19.03;;;8.07;;
5363;SDS011;2705;41.410;2.160;2023-06-26T05:01:17;12.83;;;8.47;;
5363;SDS011;2705;41.410;2.160;2023-06-26T05:03:46;15.10;;;8.30;;
5363;SDS011;2705;41.410;2.160;2023-06-26T05:06:16;15.23;;;8.20;;
5363;SDS011;2705;41.410;2.160;2023-06-26T05:08:45;13.80;;;7.90;;
5363;SDS011;2705;41.410;2.160;2023-06-26T05:11:15;12.60;;;7.73;;
5363;SDS011;2705;41.410;2.160;2023-06-26T05:13:45;12.23;;;7.40;;
5363;SDS011;2705;41.410;2.160;2023-06-26T05:16:16;15.17;;;8.83;;
5363;SDS011;2705;41.410;2.160;2023-06-26T05:18:46;12.50;;;8.80;;
5363;SDS011;2705;41.410;2.160;2023-06-26T05:21:16;14.33;;;7.90;;
5363;SDS011;2705;41.410;2.160;2023-06-26T05:23:45;14.97;;;8.13;;
5363;SDS011;2705;41.410;2.160;2023-06-26T05:26:16;11.80;;;7.30;;
5363;SDS011;2705;41.410;2.160;2023-06-26T05:28:46;12.27;;;7.27;;
5363;SDS011;2705;41.410;2.160;2023-06-26T05:31:17;15.03;;;7.93;;
5363;SDS011;2705;41.410;2.160;2023-06-26T05:33:47;13.67;;;6.70;;
5363;SDS011;2705;41.410;2.160;2023-06-26T05:36:19;15.30;;;7.47;;
5363;SDS011;2705;41.410;2.160;2023-06-26T05:38:49;18.83;;;8.10;;
5363;SDS011;2705;41.410;2.160;2023-06-26T05:41:20;10.17;;;7.60;;
5363;SDS011;2705;41.410;2.160;2023-06-26T05:43:49;11.90;;;6.73;;
5363;SDS011;2705;41.410;2.160;2023-06-26T05:46:22;11.60;;;7.10;;
5363;SDS011;2705;41.410;2.160;2023-06-26T05:48:52;14.17;;;7.73;;
5363;SDS011;2705;41.410;2.160;2023-06-26T05:51:22;15.40;;;6.87;;
5363;SDS011;2705;41.410;2.160;2023-06-26T05:53:52;15.20;;;7.10;;
5363;SDS011;2705;41.410;2.160;2023-06-26T05:56:22;15.43;;;7.73;;
5363;SDS011;2705;41.410;2.160;2023-06-26T05:58:52;19.20;;;7.50;;
5363;SDS011;2705;41.410;2.160;2023-06-26T06:01:23;14.97;;;7.90;;
5363;SDS011;2705;41.410;2.160;2023-06-26T06:03:53;13.33;;;7.83;;
5363;SDS011;2705;41.410;2.160;2023-06-26T06:06:23;27.47;;;7.93;;
5363;SDS011;2705;41.410;2.160;2023-06-26T06:08:52;13.00;;;8.00;;
5363;SDS011;2705;41.410;2.160;2023-06-26T06:11:22;17.00;;;8.83;;
5363;SDS011;2705;41.410;2.160;2023-06-26T06:13:52;13.60;;;8.80;;
5363;SDS011;2705;41.410;2.160;2023-06-26T06:16:23;16.40;;;8.20;;
5363;SDS011;2705;41.410;2.160;2023-06-26T06:18:55;13.27;;;9.20;;
5363;SDS011;2705;41.410;2.160;2023-06-26T06:21:25;13.53;;;9.10;;
5363;SDS011;2705;41.410;2.160;2023-06-26T06:23:55;26.33;;;9.77;;
5363;SDS011;2705;41.410;2.160;2023-06-26T06:26:25;19.33;;;9.30;;
5363;SDS011;2705;41.410;2.160;2023-06-26T06:28:55;18.27;;;9.17;;
5363;SDS011;2705;41.410;2.160;2023-06-26T06:31:26;24.23;;;10.03;;
5363;SDS011;2705;41.410;2.160;2023-06-26T06:33:56;23.93;;;10.90;;
5363;SDS011;2705;41.410;2.160;2023-06-26T06:36:26;50.43;;;15.40;;
5363;SDS011;2705;41.410;2.160;2023-06-26T06:38:56;33.20;;;12.00;;
5363;SDS011;2705;41.410;2.160;2023-06-26T06:41:26;20.03;;;11.63;;
5363;SDS011;2705;41.410;2.160;2023-06-26T06:43:55;18.83;;;9.83;;
5363;SDS011;2705;41.410;2.160;2023-06-26T06:46:26;21.17;;;11.20;;
5363;SDS011;2705;41.410;2.160;2023-06-26T06:48:55;29.50;;;9.50;;
5363;SDS011;2705;41.410;2.160;2023-06-26T06:51:25;16.07;;;9.90;;
5363;SDS011;2705;41.410;2.160;2023-06-26T06:53:54;17.90;;;9.57;;
5363;SDS011;2705;41.410;2.160;2023-06-26T06:56:24;20.37;;;9.53;;
5363;SDS011;2705;41.410;2.160;2023-06-26T06:58:53;21.93;;;10.73;;
5363;SDS011;2705;41.410;2.160;2023-06-26T07:01:25;20.87;;;11.40;;
5363;SDS011;2705;41.410;2.160;2023-06-26T07:03:55;21.40;;;11.70;;
5363;SDS011;2705;41.410;2.160;2023-06-26T07:06:25;21.43;;;11.50;;
5363;SDS011;2705;41.410;2.160;2023-06-26T07:08:55;20.67;;;10.40;;
5363;SDS011;2705;41.410;2.160;2023-06-26T07:11:24;26.60;;;9.73;;
5363;SDS011;2705;41.410;2.160;2023-06-26T07:13:54;22.70;;;11.23;;
5363;SDS011;2705;41.410;2.160;2023-06-26T07:16:25;20.07;;;9.40;;
5363;SDS011;2705;41.410;2.160;2023-06-26T07:18:55;21.33;;;9.83;;
5363;SDS011;2705;41.410;2.160;2023-06-26T07:21:24;20.80;;;10.00;;
5363;SDS011;2705;41.410;2.160;2023-06-26T07:23:54;20.37;;;10.43;;
5363;SDS011;2705;41.410;2.160;2023-06-26T07:26:24;23.60;;;9.70;;
5363;SDS011;2705;41.410;2.160;2023-06-26T07:29:10;24.47;;;9.87;;
5363;SDS011;2705;41.410;2.160;2023-06-26T07:31:41;28.57;;;14.40;;
5363;SDS011;2705;41.410;2.160;2023-06-26T07:34:12;25.30;;;10.83;;
5363;SDS011;2705;41.410;2.160;2023-06-26T07:36:42;22.83;;;10.73;;
5363;SDS011;2705;41.410;2.160;2023-06-26T07:39:12;24.13;;;10.10;;
5363;SDS011;2705;41.410;2.160;2023-06-26T07:41:48;26.43;;;9.90;;
5363;SDS011;2705;41.410;2.160;2023-06-26T07:44:17;29.53;;;12.67;;
5363;SDS011;2705;41.410;2.160;2023-06-26T07:46:49;26.67;;;9.10;;
5363;SDS011;2705;41.410;2.160;2023-06-26T07:49:18;30.10;;;12.47;;
5363;SDS011;2705;41.410;2.160;2023-06-26T07:51:48;30.47;;;11.27;;
5363;SDS011;2705;41.410;2.160;2023-06-26T07:54:17;22.10;;;11.80;;
5363;SDS011;2705;41.410;2.160;2023-06-26T07:56:53;37.57;;;11.07;;
5363;SDS011;2705;41.410;2.160;2023-06-26T07:59:24;28.00;;;11.27;;
5363;SDS011;2705;41.410;2.160;2023-06-26T08:01:56;24.63;;;10.23;;
5363;SDS011;2705;41.410;2.160;2023-06-26T08:04:27;24.00;;;12.10;;
5363;SDS011;2705;41.410;2.160;2023-06-26T08:06:57;23.53;;;10.37;;
5363;SDS011;2705;41.410;2.160;2023-06-26T08:09:28;24.70;;;10.10;;
5363;SDS011;2705;41.410;2.160;2023-06-26T08:11:58;26.80;;;11.70;;
5363;SDS011;2705;41.410;2.160;2023-06-26T08:14:28;32.77;;;11.67;;
5363;SDS011;2705;41.410;2.160;2023-06-26T08:17:00;26.17;;;12.50;;
5363;SDS011;2705;41.410;2.160;2023-06-26T08:19:29;30.67;;;10.77;;
5363;SDS011;2705;41.410;2.160;2023-06-26T08:21:59;28.23;;;9.90;;
5363;SDS011;2705;41.410;2.160;2023-06-26T08:24:29;33.43;;;12.40;;
5363;SDS011;2705;41.410;2.160;2023-06-26T08:26:59;19.80;;;11.37;;
5363;SDS011;2705;41.410;2.160;2023-06-26T08:29:28;27.60;;;12.00;;
5363;SDS011;2705;41.410;2.160;2023-06-26T08:31:58;19.57;;;11.07;;
5363;SDS011;2705;41.410;2.160;2023-06-26T08:34:31;21.03;;;10.90;;
5363;SDS011;2705;41.410;2.160;2023-06-26T08:37:00;28.90;;;10.50;;
5363;SDS011;2705;41.410;2.160;2023-06-26T08:39:31;22.00;;;9.70;;
5363;SDS011;2705;41.410;2.160;2023-06-26T08:42:00;19.63;;;11.00;;
5363;SDS011;2705;41.410;2.160;2023-06-26T08:44:30;20.90;;;10.03;;
5363;SDS011;2705;41.410;2.160;2023-06-26T08:46:59;20.60;;;9.53;;
5363;SDS011;2705;41.410;2.160;2023-06-26T08:49:33;27.07;;;14.03;;
5363;SDS011;2705;41.410;2.160;2023-06-26T08:52:06;26.63;;;10.70;;
5363;SDS011;2705;41.410;2.160;2023-06-26T08:54:40;22.93;;;11.10;;
5363;SDS011;2705;41.410;2.160;2023-06-26T08:57:12;31.00;;;12.00;;
5363;SDS011;2705;41.410;2.160;2023-06-26T08:59:44;20.23;;;9.87;;
5363;SDS011;2705;41.410;2.160;2023-06-26T09:02:14;30.40;;;11.37;;
5363;SDS011;2705;41.410;2.160;2023-06-26T09:04:46;28.03;;;11.63;;
5363;SDS011;2705;41.410;2.160;2023-06-26T09:07:16;22.57;;;11.33;;
5363;SDS011;2705;41.410;2.160;2023-06-26T09:09:46;30.93;;;11.27;;
5363;SDS011;2705;41.410;2.160;2023-06-26T09:12:15;29.10;;;11.37;;
5363;SDS011;2705;41.410;2.160;2023-06-26T09:14:45;16.20;;;10.17;;
5363;SDS011;2705;41.410;2.160;2023-06-26T09:17:15;26.73;;;9.70;;
5363;SDS011;2705;41.410;2.160;2023-06-26T09:19:46;26.67;;;11.30;;
5363;SDS011;2705;41.410;2.160;2023-06-26T09:22:17;20.20;;;9.57;;
5363;SDS011;2705;41.410;2.160;2023-06-26T09:24:47;17.50;;;8.90;;
5363;SDS011;2705;41.410;2.160;2023-06-26T09:27:16;17.70;;;8.13;;
5363;SDS011;2705;41.410;2.160;2023-06-26T09:29:47;16.80;;;8.00;;
5363;SDS011;2705;41.410;2.160;2023-06-26T09:32:17;13.27;;;7.70;;
5363;SDS011;2705;41.410;2.160;2023-06-26T09:34:48;14.10;;;7.37;;
5363;SDS011;2705;41.410;2.160;2023-06-26T09:37:22;20.37;;;6.77;;
5363;SDS011;2705;41.410;2.160;2023-06-26T09:39:52;16.50;;;7.37;;
5363;SDS011;2705;41.410;2.160;2023-06-26T09:42:21;10.83;;;5.93;;
5363;SDS011;2705;41.410;2.160;2023-06-26T09:44:50;17.50;;;6.87;;
5363;SDS011;2705;41.410;2.160;2023-06-26T09:47:21;15.73;;;6.10;;
5363;SDS011;2705;41.410;2.160;2023-06-26T09:49:53;10.67;;;6.27;;
5363;SDS011;2705;41.410;2.160;2023-06-26T09:52:25;19.13;;;11.03;;
5363;SDS011;2705;41.410;2.160;2023-06-26T09:55:07;13.27;;;7.20;;
5363;SDS011;2705;41.410;2.160;2023-06-26T09:57:37;9.87;;;5.07;;
5363;SDS011;2705;41.410;2.160;2023-06-26T10:00:07;9.60;;;5.37;;
5363;SDS011;2705;41.410;2.160;2023-06-26T10:02:41;12.73;;;4.70;;
5363;SDS011;2705;41.410;2.160;2023-06-26T10:05:12;9.43;;;5.13;;
5363;SDS011;2705;41.410;2.160;2023-06-26T10:07:41;9.70;;;5.33;;
5363;SDS011;2705;41.410;2.160;2023-06-26T10:10:10;12.40;;;4.50;;
5363;SDS011;2705;41.410;2.160;2023-06-26T10:12:40;13.83;;;5.00;;
5363;SDS011;2705;41.410;2.160;2023-06-26T10:15:11;7.70;;;5.17;;
5363;SDS011;2705;41.410;2.160;2023-06-26T10:17:43;7.10;;;4.60;;
5363;SDS011;2705;41.410;2.160;2023-06-26T10:20:17;8.43;;;4.37;;
5363;SDS011;2705;41.410;2.160;2023-06-26T10:22:46;15.60;;;4.87;;
5363;SDS011;2705;41.410;2.160;2023-06-26T10:25:18;8.80;;;5.03;;
5363;SDS011;2705;41.410;2.160;2023-06-26T10:27:49;10.27;;;5.10;;
5363;SDS011;2705;41.410;2.160;2023-06-26T10:30:22;7.20;;;4.60;;
5363;SDS011;2705;41.410;2.160;2023-06-26T10:32:53;7.57;;;4.10;;
5363;SDS011;2705;41.410;2.160;2023-06-26T10:35:25;8.40;;;4.67;;
5363;SDS011;2705;41.410;2.160;2023-06-26T10:37:59;10.20;;;5.20;;
5363;SDS011;2705;41.410;2.160;2023-06-26T10:40:39;4.57;;;3.70;;
5363;SDS011;2705;41.410;2.160;2023-06-26T10:43:09;5.00;;;3.90;;
5363;SDS011;2705;41.410;2.160;2023-06-26T10:45:43;8.73;;;4.90;;
5363;SDS011;2705;41.410;2.160;2023-06-26T10:48:25;8.93;;;4.60;;
5363;SDS011;2705;41.410;2.160;2023-06-26T10:51:00;15.43;;;5.23;;
5363;SDS011;2705;41.410;2.160;2023-06-26T10:53:42;7.77;;;4.90;;
5363;SDS011;2705;41.410;2.160;2023-06-26T10:56:12;10.70;;;5.10;;
5363;SDS011;2705;41.410;2.160;2023-06-26T10:58:42;16.20;;;5.57;;
5363;SDS011;2705;41.410;2.160;2023-06-26T11:01:14;19.23;;;5.47;;
5363;SDS011;2705;41.410;2.160;2023-06-26T11:03:46;16.97;;;5.07;;
5363;SDS011;2705;41.410;2.160;2023-06-26T11:06:21;8.33;;;4.43;;
5363;SDS011;2705;41.410;2.160;2023-06-26T11:08:51;13.10;;;5.10;;
5363;SDS011;2705;41.410;2.160;2023-06-26T11:11:22;10.80;;;4.80;;
5363;SDS011;2705;41.410;2.160;2023-06-26T11:13:51;10.40;;;4.20;;
5363;SDS011;2705;41.410;2.160;2023-06-26T11:16:20;9.70;;;4.73;;
5363;SDS011;2705;41.410;2.160;2023-06-26T11:18:50;13.47;;;4.90;;
5363;SDS011;2705;41.410;2.160;2023-06-26T11:21:21;14.70;;;5.90;;
5363;SDS011;2705;41.410;2.160;2023-06-26T11:23:51;6.40;;;4.63;;
5363;SDS011;2705;41.410;2.160;2023-06-26T11:26:25;8.67;;;4.77;;
5363;SDS011;2705;41.410;2.160;2023-06-26T11:28:56;6.87;;;4.23;;
5363;SDS011;2705;41.410;2.160;2023-06-26T11:31:26;12.73;;;4.60;;
5363;SDS011;2705;41.410;2.160;2023-06-26T11:33:57;13.50;;;7.20;;
5363;SDS011;2705;41.410;2.160;2023-06-26T11:36:28;8.17;;;4.80;;
5363;SDS011;2705;41.410;2.160;2023-06-26T11:38:59;7.87;;;4.83;;
5363;SDS011;2705;41.410;2.160;2023-06-26T11:41:29;12.57;;;6.07;;
5363;SDS011;2705;41.410;2.160;2023-06-26T11:44:00;8.00;;;4.50;;
5363;SDS011;2705;41.410;2.160;2023-06-26T11:46:31;9.07;;;4.87;;
5363;SDS011;2705;41.410;2.160;2023-06-26T11:49:02;8.10;;;4.57;;
5363;SDS011;2705;41.410;2.160;2023-06-26T11:51:34;20.30;;;5.10;;
5363;SDS011;2705;41.410;2.160;2023-06-26T11:54:04;10.73;;;4.90;;
5363;SDS011;2705;41.410;2.160;2023-06-26T11:56:33;8.00;;;4.53;;
5363;SDS011;2705;41.410;2.160;2023-06-26T11:59:03;5.70;;;3.70;;
5363;SDS011;2705;41.410;2.160;2023-06-26T12:01:38;7.60;;;4.43;;
5363;SDS011;2705;41.410;2.160;2023-06-26T12:04:08;19.53;;;4.77;;
5363;SDS011;2705;41.410;2.160;2023-06-26T12:06:41;10.00;;;4.67;;
5363;SDS011;2705;41.410;2.160;2023-06-26T12:09:12;12.10;;;6.30;;
5363;SDS011;2705;41.410;2.160;2023-06-26T12:11:43;5.23;;;4.53;;
5363;SDS011;2705;41.410;2.160;2023-06-26T12:14:15;17.73;;;4.40;;
5363;SDS011;2705;41.410;2.160;2023-06-26T12:16:45;13.67;;;8.93;;
5363;SDS011;2705;41.410;2.160;2023-06-26T12:19:15;10.83;;;4.27;;
5363;SDS011;2705;41.410;2.160;2023-06-26T12:21:47;7.20;;;4.47;;
5363;SDS011;2705;41.410;2.160;2023-06-26T12:24:19;8.53;;;5.30;;
5363;SDS011;2705;41.410;2.160;2023-06-26T12:26:50;9.20;;;5.00;;
5363;SDS011;2705;41.410;2.160;2023-06-26T12:29:29;7.03;;;5.33;;
5363;SDS011;2705;41.410;2.160;2023-06-26T12:32:01;7.60;;;4.97;;
5363;SDS011;2705;41.410;2.160;2023-06-26T12:34:31;6.60;;;4.13;;
5363;SDS011;2705;41.410;2.160;2023-06-26T12:37:03;12.40;;;5.30;;
5363;SDS011;2705;41.410;2.160;2023-06-26T12:39:46;6.07;;;3.83;;
5363;SDS011;2705;41.410;2.160;2023-06-26T12:42:16;9.83;;;5.73;;
5363;SDS011;2705;41.410;2.160;2023-06-26T12:44:46;10.27;;;5.30;;
5363;SDS011;2705;41.410;2.160;2023-06-26T12:47:16;8.73;;;5.40;;
5363;SDS011;2705;41.410;2.160;2023-06-26T12:49:49;11.83;;;6.10;;
5363;SDS011;2705;41.410;2.160;2023-06-26T12:52:20;10.27;;;4.60;;
5363;SDS011;2705;41.410;2.160;2023-06-26T12:54:51;9.17;;;4.53;;
5363;SDS011;2705;41.410;2.160;2023-06-26T12:57:22;11.90;;;5.13;;
5363;SDS011;2705;41.410;2.160;2023-06-26T12:59:51;16.43;;;5.40;;
5363;SDS011;2705;41.410;2.160;2023-06-26T13:02:20;6.23;;;5.30;;
5363;SDS011;2705;41.410;2.160;2023-06-26T13:04:50;8.63;;;5.77;;
5363;SDS011;2705;41.410;2.160;2023-06-26T13:07:21;10.30;;;5.60;;
5363;SDS011;2705;41.410;2.160;2023-06-26T13:09:53;15.87;;;4.47;;
5363;SDS011;2705;41.410;2.160;2023-06-26T13:12:23;14.30;;;5.20;;
5363;SDS011;2705;41.410;2.160;2023-06-26T13:14:52;8.30;;;4.70;;
5363;SDS011;2705;41.410;2.160;2023-06-26T13:17:21;10.90;;;5.00;;
5363;SDS011;2705;41.410;2.160;2023-06-26T13:19:50;15.27;;;5.17;;
5363;SDS011;2705;41.410;2.160;2023-06-26T13:22:21;8.40;;;4.53;;
5363;SDS011;2705;41.410;2.160;2023-06-26T13:24:51;10.77;;;4.87;;
5363;SDS011;2705;41.410;2.160;2023-06-26T13:27:20;12.20;;;6.03;;
5363;SDS011;2705;41.410;2.160;2023-06-26T13:29:49;8.17;;;5.20;;
5363;SDS011;2705;41.410;2.160;2023-06-26T13:32:20;16.03;;;4.90;;
5363;SDS011;2705;41.410;2.160;2023-06-26T13:34:49;5.13;;;4.30;;
5363;SDS011;2705;41.410;2.160;2023-06-26T13:37:19;10.27;;;4.90;;
5363;SDS011;2705;41.410;2.160;2023-06-26T13:39:50;8.73;;;4.23;;
5363;SDS011;2705;41.410;2.160;2023-06-26T13:42:19;9.00;;;5.20;;
5363;SDS011;2705;41.410;2.160;2023-06-26T13:44:49;7.47;;;5.03;;
5363;SDS011;2705;41.410;2.160;2023-06-26T13:47:31;6.67;;;5.00;;
5363;SDS011;2705;41.410;2.160;2023-06-26T13:50:01;13.20;;;4.93;;
5363;SDS011;2705;41.410;2.160;2023-06-26T13:52:30;10.73;;;5.07;;
5363;SDS011;2705;41.410;2.160;2023-06-26T13:55:01;8.93;;;4.70;;
5363;SDS011;2705;41.410;2.160;2023-06-26T13:57:31;7.40;;;4.50;;
5363;SDS011;2705;41.410;2.160;2023-06-26T14:00:01;10.10;;;4.77;;
5363;SDS011;2705;41.410;2.160;2023-06-26T14:02:38;12.10;;;5.07;;
5363;SDS011;2705;41.410;2.160;2023-06-26T14:05:08;8.63;;;4.70;;
5363;SDS011;2705;41.410;2.160;2023-06-26T14:07:37;5.60;;;4.23;;
5363;SDS011;2705;41.410;2.160;2023-06-26T14:10:09;8.17;;;5.33;;
5363;SDS011;2705;41.410;2.160;2023-06-26T14:12:38;8.80;;;4.50;;
5363;SDS011;2705;41.410;2.160;2023-06-26T14:15:08;14.50;;;4.30;;
5363;SDS011;2705;41.410;2.160;2023-06-26T14:17:37;5.83;;;4.47;;
5363;SDS011;2705;41.410;2.160;2023-06-26T14:20:08;12.33;;;4.57;;
5363;SDS011;2705;41.410;2.160;2023-06-26T14:22:40;6.03;;;4.17;;
5363;SDS011;2705;41.410;2.160;2023-06-26T14:25:10;12.87;;;5.00;;
5363;SDS011;2705;41.410;2.160;2023-06-26T14:27:41;9.87;;;4.40;;
5363;SDS011;2705;41.410;2.160;2023-06-26T14:30:10;6.37;;;5.50;;
5363;SDS011;2705;41.410;2.160;2023-06-26T14:32:40;7.73;;;4.90;;
5363;SDS011;2705;41.410;2.160;2023-06-26T14:35:09;10.27;;;4.33;;
5363;SDS011;2705;41.410;2.160;2023-06-26T14:37:39;13.17;;;4.67;;
5363;SDS011;2705;41.410;2.160;2023-06-26T14:40:09;8.70;;;4.90;;
5363;SDS011;2705;41.410;2.160;2023-06-26T14:42:40;7.33;;;4.07;;
5363;SDS011;2705;41.410;2.160;2023-06-26T14:45:11;16.10;;;5.40;;
5363;SDS011;2705;41.410;2.160;2023-06-26T14:47:41;12.80;;;4.87;;
5363;SDS011;2705;41.410;2.160;2023-06-26T14:50:10;9.23;;;4.80;;
5363;SDS011;2705;41.410;2.160;2023-06-26T14:52:39;6.90;;;4.50;;
5363;SDS011;2705;41.410;2.160;2023-06-26T14:55:09;10.00;;;4.93;;
5363;SDS011;2705;41.410;2.160;2023-06-26T14:57:40;7.33;;;4.30;;
5363;SDS011;2705;41.410;2.160;2023-06-26T15:00:10;8.03;;;4.53;;
5363;SDS011;2705;41.410;2.160;2023-06-26T15:02:40;13.77;;;5.60;;
5363;SDS011;2705;41.410;2.160;2023-06-26T15:05:09;11.57;;;6.27;;
5363;SDS011;2705;41.410;2.160;2023-06-26T15:07:38;7.03;;;4.33;;
5363;SDS011;2705;41.410;2.160;2023-06-26T15:10:08;13.20;;;4.87;;
5363;SDS011;2705;41.410;2.160;2023-06-26T15:12:38;9.70;;;4.40;;
5363;SDS011;2705;41.410;2.160;2023-06-26T15:15:09;6.10;;;4.00;;
5363;SDS011;2705;41.410;2.160;2023-06-26T15:17:39;10.53;;;4.93;;
5363;SDS011;2705;41.410;2.160;2023-06-26T15:20:09;8.27;;;4.60;;
5363;SDS011;2705;41.410;2.160;2023-06-26T15:22:38;9.90;;;4.73;;